sensor_id;sensor_type;location;lat;lon;timestamp;temperature;humidity
49379;DHT22;35254;47.990;-1.608;2022-11-23T00:00:36;20.40;51.50
49379;DHT22;35254;47.990;-1.608;2022-11-23T00:03:02;20.30;51.50
49379;DHT22;35254;47.990;-1.608;2022-11-23T00:05:29;20.30;51.70
49379;DHT22;35254;47.990;-1.608;2022-11-23T00:07:55;20.30;51.60
49379;DHT22;35254;47.990;-1.608;2022-11-23T00:10:21;20.30;51.60
49379;DHT22;35254;47.990;-1.608;2022-11-23T00:12:46;20.30;51.60
49379;DHT22;35254;47.990;-1.608;2022-11-23T00:15:13;20.30;51.80
49379;DHT22;35254;47.990;-1.608;2022-11-23T00:17:39;20.30;51.50
49379;DHT22;35254;47.990;-1.608;2022-11-23T00:20:07;20.30;51.40
49379;DHT22;35254;47.990;-1.608;2022-11-23T00:22:33;20.30;51.70
49379;DHT22;35254;47.990;-1.608;2022-11-23T00:24:58;20.30;51.20
49379;DHT22;35254;47.990;-1.608;2022-11-23T00:27:24;20.30;51.10
49379;DHT22;35254;47.990;-1.608;2022-11-23T00:29:49;20.30;51.20
49379;DHT22;35254;47.990;-1.608;2022-11-23T00:32:15;20.30;51.20
49379;DHT22;35254;47.990;-1.608;2022-11-23T00:34:41;20.30;51.10
49379;DHT22;35254;47.990;-1.608;2022-11-23T00:37:06;20.20;51.20
49379;DHT22;35254;47.990;-1.608;2022-11-23T00:39:32;20.20;51.30
49379;DHT22;35254;47.990;-1.608;2022-11-23T00:41:58;20.20;51.30
49379;DHT22;35254;47.990;-1.608;2022-11-23T00:44:23;20.20;51.40
49379;DHT22;35254;47.990;-1.608;2022-11-23T00:46:49;20.20;51.30
49379;DHT22;35254;47.990;-1.608;2022-11-23T00:49:14;20.20;51.50
49379;DHT22;35254;47.990;-1.608;2022-11-23T00:51:40;20.30;51.30
49379;DHT22;35254;47.990;-1.608;2022-11-23T00:54:06;20.20;51.30
49379;DHT22;35254;47.990;-1.608;2022-11-23T00:56:33;20.20;51.20
49379;DHT22;35254;47.990;-1.608;2022-11-23T00:59:00;20.20;51.40
49379;DHT22;35254;47.990;-1.608;2022-11-23T01:01:31;20.20;51.30
49379;DHT22;35254;47.990;-1.608;2022-11-23T01:04:06;20.20;51.50
49379;DHT22;35254;47.990;-1.608;2022-11-23T01:06:34;20.20;51.30
49379;DHT22;35254;47.990;-1.608;2022-11-23T01:09:14;20.20;51.40
49379;DHT22;35254;47.990;-1.608;2022-11-23T01:11:40;20.20;51.40
49379;DHT22;35254;47.990;-1.608;2022-11-23T01:14:06;20.20;51.40
49379;DHT22;35254;47.990;-1.608;2022-11-23T01:16:35;20.20;51.40
49379;DHT22;35254;47.990;-1.608;2022-11-23T01:19:04;20.20;51.20
49379;DHT22;35254;47.990;-1.608;2022-11-23T01:21:32;20.20;51.10
49379;DHT22;35254;47.990;-1.608;2022-11-23T01:23:58;20.20;51.30
49379;DHT22;35254;47.990;-1.608;2022-11-23T01:26:24;20.20;51.20
49379;DHT22;35254;47.990;-1.608;2022-11-23T01:28:50;20.20;51.10
49379;DHT22;35254;47.990;-1.608;2022-11-23T01:31:21;20.20;51.20
49379;DHT22;35254;47.990;-1.608;2022-11-23T01:33:46;20.20;51.20
49379;DHT22;35254;47.990;-1.608;2022-11-23T01:36:15;20.20;51.20
49379;DHT22;35254;47.990;-1.608;2022-11-23T01:38:42;20.20;51.30
49379;DHT22;35254;47.990;-1.608;2022-11-23T01:41:10;20.20;51.10
49379;DHT22;35254;47.990;-1.608;2022-11-23T01:43:36;20.10;51.20
49379;DHT22;35254;47.990;-1.608;2022-11-23T01:46:02;20.20;51.30
49379;DHT22;35254;47.990;-1.608;2022-11-23T01:49:14;20.20;51.20
49379;DHT22;35254;47.990;-1.608;2022-11-23T01:51:28;20.20;51.30
49379;DHT22;35254;47.990;-1.608;2022-11-23T01:53:58;20.20;51.20
49379;DHT22;35254;47.990;-1.608;2022-11-23T01:56:28;20.10;51.20
49379;DHT22;35254;47.990;-1.608;2022-11-23T01:58:57;20.20;51.30
49379;DHT22;35254;47.990;-1.608;2022-11-23T02:01:23;20.10;51.20
49379;DHT22;35254;47.990;-1.608;2022-11-23T02:03:49;20.10;51.20
49379;DHT22;35254;47.990;-1.608;2022-11-23T02:06:18;20.10;51.20
49379;DHT22;35254;47.990;-1.608;2022-11-23T02:08:44;20.10;51.30
49379;DHT22;35254;47.990;-1.608;2022-11-23T02:11:13;20.10;51.60
49379;DHT22;35254;47.990;-1.608;2022-11-23T02:13:40;20.10;51.30
49379;DHT22;35254;47.990;-1.608;2022-11-23T02:16:07;20.10;51.30
49379;DHT22;35254;47.990;-1.608;2022-11-23T02:18:34;20.10;51.40
49379;DHT22;35254;47.990;-1.608;2022-11-23T02:21:02;20.10;51.40
49379;DHT22;35254;47.990;-1.608;2022-11-23T02:24:00;20.10;51.40
49379;DHT22;35254;47.990;-1.608;2022-11-23T02:26:31;20.00;51.30
49379;DHT22;35254;47.990;-1.608;2022-11-23T02:31:26;20.00;51.30
49379;DHT22;35254;47.990;-1.608;2022-11-23T02:33:51;20.10;51.40
49379;DHT22;35254;47.990;-1.608;2022-11-23T02:38:55;20.00;51.50
49379;DHT22;35254;47.990;-1.608;2022-11-23T02:41:21;20.00;51.50
49379;DHT22;35254;47.990;-1.608;2022-11-23T02:43:50;20.00;51.50
49379;DHT22;35254;47.990;-1.608;2022-11-23T02:46:17;20.00;51.50
49379;DHT22;35254;47.990;-1.608;2022-11-23T02:48:43;20.00;51.50
49379;DHT22;35254;47.990;-1.608;2022-11-23T02:51:08;20.00;51.50
49379;DHT22;35254;47.990;-1.608;2022-11-23T02:53:34;20.00;51.60
49379;DHT22;35254;47.990;-1.608;2022-11-23T02:55:59;20.00;51.50
49379;DHT22;35254;47.990;-1.608;2022-11-23T02:58:25;20.00;51.80
49379;DHT22;35254;47.990;-1.608;2022-11-23T03:00:51;20.00;52.30
49379;DHT22;35254;47.990;-1.608;2022-11-23T03:03:16;20.00;53.20
49379;DHT22;35254;47.990;-1.608;2022-11-23T03:05:42;20.10;53.10
49379;DHT22;35254;47.990;-1.608;2022-11-23T03:08:07;20.10;52.30
49379;DHT22;35254;47.990;-1.608;2022-11-23T03:10:33;20.10;52.20
49379;DHT22;35254;47.990;-1.608;2022-11-23T03:12:59;20.00;52.00
49379;DHT22;35254;47.990;-1.608;2022-11-23T03:15:24;20.00;51.90
49379;DHT22;35254;47.990;-1.608;2022-11-23T03:17:50;20.00;51.90
49379;DHT22;35254;47.990;-1.608;2022-11-23T03:20:16;19.90;51.90
49379;DHT22;35254;47.990;-1.608;2022-11-23T03:22:42;20.00;51.80
49379;DHT22;35254;47.990;-1.608;2022-11-23T03:25:08;20.00;51.90
49379;DHT22;35254;47.990;-1.608;2022-11-23T03:27:33;19.90;52.20
49379;DHT22;35254;47.990;-1.608;2022-11-23T03:29:59;20.00;52.10
49379;DHT22;35254;47.990;-1.608;2022-11-23T03:32:25;19.90;51.90
49379;DHT22;35254;47.990;-1.608;2022-11-23T03:34:51;19.90;52.30
49379;DHT22;35254;47.990;-1.608;2022-11-23T03:37:16;20.00;52.00
49379;DHT22;35254;47.990;-1.608;2022-11-23T03:39:42;19.90;52.30
49379;DHT22;35254;47.990;-1.608;2022-11-23T03:42:07;19.90;52.50
49379;DHT22;35254;47.990;-1.608;2022-11-23T03:44:33;20.00;52.40
49379;DHT22;35254;47.990;-1.608;2022-11-23T03:46:59;20.00;52.20
49379;DHT22;35254;47.990;-1.608;2022-11-23T03:49:24;20.00;52.20
49379;DHT22;35254;47.990;-1.608;2022-11-23T03:51:50;20.00;52.30
49379;DHT22;35254;47.990;-1.608;2022-11-23T03:54:16;20.00;52.40
49379;DHT22;35254;47.990;-1.608;2022-11-23T03:56:41;20.00;52.30
49379;DHT22;35254;47.990;-1.608;2022-11-23T03:59:07;20.00;52.30
49379;DHT22;35254;47.990;-1.608;2022-11-23T04:01:33;20.00;52.30
49379;DHT22;35254;47.990;-1.608;2022-11-23T04:03:58;20.00;52.30
49379;DHT22;35254;47.990;-1.608;2022-11-23T04:06:24;20.00;52.40
49379;DHT22;35254;47.990;-1.608;2022-11-23T04:08:49;19.90;52.30
49379;DHT22;35254;47.990;-1.608;2022-11-23T04:11:15;20.00;52.40
49379;DHT22;35254;47.990;-1.608;2022-11-23T04:13:40;19.90;52.30
49379;DHT22;35254;47.990;-1.608;2022-11-23T04:16:06;19.90;52.40
49379;DHT22;35254;47.990;-1.608;2022-11-23T04:18:32;19.90;52.40
49379;DHT22;35254;47.990;-1.608;2022-11-23T04:20:57;19.90;52.40
49379;DHT22;35254;47.990;-1.608;2022-11-23T04:23:23;19.90;52.30
49379;DHT22;35254;47.990;-1.608;2022-11-23T04:25:49;19.90;52.40
49379;DHT22;35254;47.990;-1.608;2022-11-23T04:28:14;19.90;52.30
49379;DHT22;35254;47.990;-1.608;2022-11-23T04:30:40;19.90;52.40
49379;DHT22;35254;47.990;-1.608;2022-11-23T04:33:06;19.90;52.40
49379;DHT22;35254;47.990;-1.608;2022-11-23T04:35:31;19.90;52.50
49379;DHT22;35254;47.990;-1.608;2022-11-23T04:37:58;19.90;52.50
49379;DHT22;35254;47.990;-1.608;2022-11-23T04:40:24;19.90;52.50
49379;DHT22;35254;47.990;-1.608;2022-11-23T04:42:50;19.90;52.60
49379;DHT22;35254;47.990;-1.608;2022-11-23T04:45:15;19.90;52.50
49379;DHT22;35254;47.990;-1.608;2022-11-23T04:47:41;19.90;52.60
49379;DHT22;35254;47.990;-1.608;2022-11-23T04:50:07;19.90;52.60
49379;DHT22;35254;47.990;-1.608;2022-11-23T04:52:33;19.90;52.50
49379;DHT22;35254;47.990;-1.608;2022-11-23T04:54:58;19.90;52.50
49379;DHT22;35254;47.990;-1.608;2022-11-23T04:57:24;19.90;52.50
49379;DHT22;35254;47.990;-1.608;2022-11-23T04:59:49;19.90;52.50
49379;DHT22;35254;47.990;-1.608;2022-11-23T05:02:15;19.90;52.60
49379;DHT22;35254;47.990;-1.608;2022-11-23T05:04:41;19.90;52.60
49379;DHT22;35254;47.990;-1.608;2022-11-23T05:07:06;19.90;52.60
49379;DHT22;35254;47.990;-1.608;2022-11-23T05:09:32;19.90;52.60
49379;DHT22;35254;47.990;-1.608;2022-11-23T05:11:57;19.90;52.70
49379;DHT22;35254;47.990;-1.608;2022-11-23T05:14:23;19.90;52.80
49379;DHT22;35254;47.990;-1.608;2022-11-23T05:16:49;19.90;52.60
49379;DHT22;35254;47.990;-1.608;2022-11-23T05:19:14;19.90;52.60
49379;DHT22;35254;47.990;-1.608;2022-11-23T05:21:40;19.80;52.70
49379;DHT22;35254;47.990;-1.608;2022-11-23T05:24:06;19.90;52.70
49379;DHT22;35254;47.990;-1.608;2022-11-23T05:26:31;19.90;52.60
49379;DHT22;35254;47.990;-1.608;2022-11-23T05:28:57;19.80;52.60
49379;DHT22;35254;47.990;-1.608;2022-11-23T05:31:22;19.80;52.60
49379;DHT22;35254;47.990;-1.608;2022-11-23T05:33:48;19.80;52.60
49379;DHT22;35254;47.990;-1.608;2022-11-23T05:36:14;19.80;52.70
49379;DHT22;35254;47.990;-1.608;2022-11-23T05:38:40;19.80;52.60
49379;DHT22;35254;47.990;-1.608;2022-11-23T05:41:06;19.80;52.70
49379;DHT22;35254;47.990;-1.608;2022-11-23T05:43:32;19.80;52.80
49379;DHT22;35254;47.990;-1.608;2022-11-23T05:45:59;19.80;52.80
49379;DHT22;35254;47.990;-1.608;2022-11-23T05:48:25;19.80;52.80
49379;DHT22;35254;47.990;-1.608;2022-11-23T05:50:50;19.80;52.70
49379;DHT22;35254;47.990;-1.608;2022-11-23T05:53:16;19.80;52.60
49379;DHT22;35254;47.990;-1.608;2022-11-23T05:55:42;19.90;52.70
49379;DHT22;35254;47.990;-1.608;2022-11-23T05:58:07;19.80;53.00
49379;DHT22;35254;47.990;-1.608;2022-11-23T06:00:33;19.80;52.90
49379;DHT22;35254;47.990;-1.608;2022-11-23T06:03:00;19.80;53.00
49379;DHT22;35254;47.990;-1.608;2022-11-23T06:05:26;19.80;52.90
49379;DHT22;35254;47.990;-1.608;2022-11-23T06:07:52;19.80;53.10
49379;DHT22;35254;47.990;-1.608;2022-11-23T06:10:18;19.80;53.10
49379;DHT22;35254;47.990;-1.608;2022-11-23T06:12:44;19.80;53.10
49379;DHT22;35254;47.990;-1.608;2022-11-23T06:15:10;19.80;53.00
49379;DHT22;35254;47.990;-1.608;2022-11-23T06:17:36;19.80;53.10
49379;DHT22;35254;47.990;-1.608;2022-11-23T06:20:04;19.80;53.10
49379;DHT22;35254;47.990;-1.608;2022-11-23T06:22:30;19.70;53.00
49379;DHT22;35254;47.990;-1.608;2022-11-23T06:24:56;19.80;53.10
49379;DHT22;35254;47.990;-1.608;2022-11-23T06:27:22;19.80;52.90
49379;DHT22;35254;47.990;-1.608;2022-11-23T06:29:47;19.80;53.10
49379;DHT22;35254;47.990;-1.608;2022-11-23T06:32:13;19.80;53.10
49379;DHT22;35254;47.990;-1.608;2022-11-23T06:34:39;19.80;53.30
49379;DHT22;35254;47.990;-1.608;2022-11-23T06:37:05;19.80;53.10
49379;DHT22;35254;47.990;-1.608;2022-11-23T06:39:30;19.80;53.20
49379;DHT22;35254;47.990;-1.608;2022-11-23T06:41:56;19.80;53.20
49379;DHT22;35254;47.990;-1.608;2022-11-23T06:44:21;19.80;53.20
49379;DHT22;35254;47.990;-1.608;2022-11-23T06:46:47;19.70;53.30
49379;DHT22;35254;47.990;-1.608;2022-11-23T06:49:13;19.80;53.50
49379;DHT22;35254;47.990;-1.608;2022-11-23T06:51:38;19.70;53.50
49379;DHT22;35254;47.990;-1.608;2022-11-23T06:54:04;19.80;53.40
49379;DHT22;35254;47.990;-1.608;2022-11-23T06:56:32;19.80;53.50
49379;DHT22;35254;47.990;-1.608;2022-11-23T06:58:58;19.80;53.60
49379;DHT22;35254;47.990;-1.608;2022-11-23T07:01:24;19.80;53.50
49379;DHT22;35254;47.990;-1.608;2022-11-23T07:03:49;19.80;53.60
49379;DHT22;35254;47.990;-1.608;2022-11-23T07:06:15;19.70;53.60
49379;DHT22;35254;47.990;-1.608;2022-11-23T07:08:40;19.80;53.50
49379;DHT22;35254;47.990;-1.608;2022-11-23T07:11:10;19.80;53.60
49379;DHT22;35254;47.990;-1.608;2022-11-23T07:13:36;19.80;53.60
49379;DHT22;35254;47.990;-1.608;2022-11-23T07:16:02;19.80;53.60
49379;DHT22;35254;47.990;-1.608;2022-11-23T07:18:27;19.70;53.50
49379;DHT22;35254;47.990;-1.608;2022-11-23T07:20:55;19.70;53.60
49379;DHT22;35254;47.990;-1.608;2022-11-23T07:23:21;19.80;53.40
49379;DHT22;35254;47.990;-1.608;2022-11-23T07:25:46;19.80;53.70
49379;DHT22;35254;47.990;-1.608;2022-11-23T07:28:12;19.80;54.30
49379;DHT22;35254;47.990;-1.608;2022-11-23T07:30:38;19.80;53.80
49379;DHT22;35254;47.990;-1.608;2022-11-23T07:33:06;19.90;56.10
49379;DHT22;35254;47.990;-1.608;2022-11-23T07:35:35;19.90;55.20
49379;DHT22;35254;47.990;-1.608;2022-11-23T07:38:01;19.90;54.60
49379;DHT22;35254;47.990;-1.608;2022-11-23T07:40:27;19.80;54.10
49379;DHT22;35254;47.990;-1.608;2022-11-23T07:42:58;19.80;54.30
49379;DHT22;35254;47.990;-1.608;2022-11-23T07:45:25;19.80;54.30
49379;DHT22;35254;47.990;-1.608;2022-11-23T07:47:57;19.80;55.30
49379;DHT22;35254;47.990;-1.608;2022-11-23T07:50:23;19.90;54.70
49379;DHT22;35254;47.990;-1.608;2022-11-23T07:52:49;19.90;55.20
49379;DHT22;35254;47.990;-1.608;2022-11-23T07:55:15;19.90;54.60
49379;DHT22;35254;47.990;-1.608;2022-11-23T07:57:40;19.90;54.60
49379;DHT22;35254;47.990;-1.608;2022-11-23T08:00:06;19.90;54.00
49379;DHT22;35254;47.990;-1.608;2022-11-23T08:02:32;20.00;54.20
49379;DHT22;35254;47.990;-1.608;2022-11-23T08:04:58;20.00;54.00
49379;DHT22;35254;47.990;-1.608;2022-11-23T08:07:23;20.00;54.10
49379;DHT22;35254;47.990;-1.608;2022-11-23T08:09:49;20.10;53.60
49379;DHT22;35254;47.990;-1.608;2022-11-23T08:12:14;20.20;54.70
49379;DHT22;35254;47.990;-1.608;2022-11-23T08:14:40;20.20;54.50
49379;DHT22;35254;47.990;-1.608;2022-11-23T08:17:06;20.20;54.30
49379;DHT22;35254;47.990;-1.608;2022-11-23T08:19:31;20.20;54.60
49379;DHT22;35254;47.990;-1.608;2022-11-23T08:21:57;20.20;55.30
49379;DHT22;35254;47.990;-1.608;2022-11-23T08:24:22;20.30;55.50
49379;DHT22;35254;47.990;-1.608;2022-11-23T08:26:48;20.30;56.10
49379;DHT22;35254;47.990;-1.608;2022-11-23T08:29:14;20.40;57.10
49379;DHT22;35254;47.990;-1.608;2022-11-23T08:31:39;20.30;57.20
49379;DHT22;35254;47.990;-1.608;2022-11-23T08:34:05;20.20;57.10
49379;DHT22;35254;47.990;-1.608;2022-11-23T08:36:31;20.20;56.50
49379;DHT22;35254;47.990;-1.608;2022-11-23T08:38:56;20.20;57.30
49379;DHT22;35254;47.990;-1.608;2022-11-23T08:41:22;20.20;57.30
49379;DHT22;35254;47.990;-1.608;2022-11-23T08:43:48;20.20;57.20
49379;DHT22;35254;47.990;-1.608;2022-11-23T08:46:14;20.20;56.90
49379;DHT22;35254;47.990;-1.608;2022-11-23T08:48:40;20.30;56.40
49379;DHT22;35254;47.990;-1.608;2022-11-23T08:51:06;20.30;56.00
49379;DHT22;35254;47.990;-1.608;2022-11-23T08:53:32;20.30;56.60
49379;DHT22;35254;47.990;-1.608;2022-11-23T08:56:02;20.40;55.80
49379;DHT22;35254;47.990;-1.608;2022-11-23T08:58:29;20.30;55.50
49379;DHT22;35254;47.990;-1.608;2022-11-23T09:00:55;20.40;55.20
49379;DHT22;35254;47.990;-1.608;2022-11-23T09:03:20;20.40;55.30
49379;DHT22;35254;47.990;-1.608;2022-11-23T09:05:46;20.40;55.50
49379;DHT22;35254;47.990;-1.608;2022-11-23T09:08:12;20.40;55.00
49379;DHT22;35254;47.990;-1.608;2022-11-23T09:10:38;20.40;55.00
49379;DHT22;35254;47.990;-1.608;2022-11-23T09:13:03;20.40;54.80
49379;DHT22;35254;47.990;-1.608;2022-11-23T09:15:29;20.40;54.90
49379;DHT22;35254;47.990;-1.608;2022-11-23T09:17:56;20.40;54.70
49379;DHT22;35254;47.990;-1.608;2022-11-23T09:20:21;20.40;54.50
49379;DHT22;35254;47.990;-1.608;2022-11-23T09:22:51;20.50;54.70
49379;DHT22;35254;47.990;-1.608;2022-11-23T09:25:17;20.50;54.70
49379;DHT22;35254;47.990;-1.608;2022-11-23T09:27:43;20.40;54.70
49379;DHT22;35254;47.990;-1.608;2022-11-23T09:30:09;20.50;54.50
49379;DHT22;35254;47.990;-1.608;2022-11-23T09:32:35;20.50;54.70
49379;DHT22;35254;47.990;-1.608;2022-11-23T09:35:01;20.40;54.60
49379;DHT22;35254;47.990;-1.608;2022-11-23T09:37:27;20.50;54.60
49379;DHT22;35254;47.990;-1.608;2022-11-23T09:39:52;20.50;53.70
49379;DHT22;35254;47.990;-1.608;2022-11-23T09:45:19;20.40;54.50
49379;DHT22;35254;47.990;-1.608;2022-11-23T09:50:20;20.40;54.20
49379;DHT22;35254;47.990;-1.608;2022-11-23T09:52:49;20.40;55.00
49379;DHT22;35254;47.990;-1.608;2022-11-23T09:55:41;20.40;55.00
49379;DHT22;35254;47.990;-1.608;2022-11-23T09:58:19;20.40;54.80
49379;DHT22;35254;47.990;-1.608;2022-11-23T10:01:06;20.40;54.80
49379;DHT22;35254;47.990;-1.608;2022-11-23T10:03:37;20.40;54.70
49379;DHT22;35254;47.990;-1.608;2022-11-23T10:11:39;20.50;54.90
49379;DHT22;35254;47.990;-1.608;2022-11-23T10:22:26;20.60;54.90
49379;DHT22;35254;47.990;-1.608;2022-11-23T10:24:54;20.60;55.10
49379;DHT22;35254;47.990;-1.608;2022-11-23T10:27:22;20.60;55.00
49379;DHT22;35254;47.990;-1.608;2022-11-23T10:29:49;20.70;55.00
49379;DHT22;35254;47.990;-1.608;2022-11-23T10:32:28;20.70;54.90
49379;DHT22;35254;47.990;-1.608;2022-11-23T10:37:27;20.70;55.00
49379;DHT22;35254;47.990;-1.608;2022-11-23T10:39:53;20.70;55.10
49379;DHT22;35254;47.990;-1.608;2022-11-23T10:44:49;20.70;55.00
49379;DHT22;35254;47.990;-1.608;2022-11-23T10:47:41;20.80;55.10
49379;DHT22;35254;47.990;-1.608;2022-11-23T10:50:22;20.80;54.70
49379;DHT22;35254;47.990;-1.608;2022-11-23T10:52:56;20.80;54.40
49379;DHT22;35254;47.990;-1.608;2022-11-23T10:55:26;20.90;54.30
49379;DHT22;35254;47.990;-1.608;2022-11-23T10:57:53;20.90;54.40
49379;DHT22;35254;47.990;-1.608;2022-11-23T11:00:20;20.90;54.20
49379;DHT22;35254;47.990;-1.608;2022-11-23T11:02:56;20.90;54.10
49379;DHT22;35254;47.990;-1.608;2022-11-23T11:05:38;20.90;54.10
49379;DHT22;35254;47.990;-1.608;2022-11-23T11:08:18;20.80;54.20
49379;DHT22;35254;47.990;-1.608;2022-11-23T11:11:07;20.90;54.30
49379;DHT22;35254;47.990;-1.608;2022-11-23T11:13:46;20.90;54.60
49379;DHT22;35254;47.990;-1.608;2022-11-23T11:16:52;20.90;54.60
49379;DHT22;35254;47.990;-1.608;2022-11-23T11:19:31;20.80;55.00
49379;DHT22;35254;47.990;-1.608;2022-11-23T11:21:58;20.70;54.50
49379;DHT22;35254;47.990;-1.608;2022-11-23T11:24:57;20.70;54.40
49379;DHT22;35254;47.990;-1.608;2022-11-23T11:27:19;20.80;54.20
49379;DHT22;35254;47.990;-1.608;2022-11-23T11:29:46;20.70;54.10
49379;DHT22;35254;47.990;-1.608;2022-11-23T11:32:30;20.70;54.20
49379;DHT22;35254;47.990;-1.608;2022-11-23T11:37:43;20.70;54.50
49379;DHT22;35254;47.990;-1.608;2022-11-23T11:43:12;20.70;54.50
49379;DHT22;35254;47.990;-1.608;2022-11-23T11:45:41;20.80;54.30
49379;DHT22;35254;47.990;-1.608;2022-11-23T11:48:31;20.80;54.40
49379;DHT22;35254;47.990;-1.608;2022-11-23T11:51:08;20.80;54.40
49379;DHT22;35254;47.990;-1.608;2022-11-23T11:53:42;20.80;54.90
49379;DHT22;35254;47.990;-1.608;2022-11-23T11:56:46;20.80;54.00
49379;DHT22;35254;47.990;-1.608;2022-11-23T12:02:23;20.90;53.80
49379;DHT22;35254;47.990;-1.608;2022-11-23T12:05:22;21.00;53.90
49379;DHT22;35254;47.990;-1.608;2022-11-23T12:08:01;20.90;53.90
49379;DHT22;35254;47.990;-1.608;2022-11-23T12:13:25;21.00;54.00
49379;DHT22;35254;47.990;-1.608;2022-11-23T12:16:18;21.10;54.10
49379;DHT22;35254;47.990;-1.608;2022-11-23T12:27:00;21.20;55.10
49379;DHT22;35254;47.990;-1.608;2022-11-23T12:35:32;21.20;55.80
49379;DHT22;35254;47.990;-1.608;2022-11-23T12:38:50;21.30;56.10
49379;DHT22;35254;47.990;-1.608;2022-11-23T12:46:10;21.50;56.50
49379;DHT22;35254;47.990;-1.608;2022-11-23T12:48:58;21.50;56.50
49379;DHT22;35254;47.990;-1.608;2022-11-23T12:57:05;21.50;56.80
49379;DHT22;35254;47.990;-1.608;2022-11-23T13:05:39;21.50;56.80
49379;DHT22;35254;47.990;-1.608;2022-11-23T13:08:19;21.50;56.60
49379;DHT22;35254;47.990;-1.608;2022-11-23T13:11:15;21.50;56.90
49379;DHT22;35254;47.990;-1.608;2022-11-23T13:22:19;21.50;56.40
49379;DHT22;35254;47.990;-1.608;2022-11-23T13:33:02;21.50;58.60
49379;DHT22;35254;47.990;-1.608;2022-11-23T13:40:28;21.60;58.60
49379;DHT22;35254;47.990;-1.608;2022-11-23T13:42:58;21.50;57.90
49379;DHT22;35254;47.990;-1.608;2022-11-23T13:45:26;21.50;57.70
49379;DHT22;35254;47.990;-1.608;2022-11-23T13:50:34;21.50;57.80
49379;DHT22;35254;47.990;-1.608;2022-11-23T13:53:00;21.50;57.50
49379;DHT22;35254;47.990;-1.608;2022-11-23T13:55:36;21.50;57.50
49379;DHT22;35254;47.990;-1.608;2022-11-23T14:00:57;21.40;56.80
49379;DHT22;35254;47.990;-1.608;2022-11-23T14:11:39;21.30;56.10
49379;DHT22;35254;47.990;-1.608;2022-11-23T14:14:17;21.30;56.10
49379;DHT22;35254;47.990;-1.608;2022-11-23T14:31:15;21.30;56.70
49379;DHT22;35254;47.990;-1.608;2022-11-23T14:33:35;21.30;56.60
49379;DHT22;35254;47.990;-1.608;2022-11-23T14:41:51;21.30;56.50
49379;DHT22;35254;47.990;-1.608;2022-11-23T14:44:22;21.30;57.30
49379;DHT22;35254;47.990;-1.608;2022-11-23T14:47:05;21.30;56.50
49379;DHT22;35254;47.990;-1.608;2022-11-23T14:49:31;21.30;56.40
49379;DHT22;35254;47.990;-1.608;2022-11-23T14:51:57;21.30;56.80
49379;DHT22;35254;47.990;-1.608;2022-11-23T14:54:24;21.30;57.00
49379;DHT22;35254;47.990;-1.608;2022-11-23T14:56:52;21.30;56.80
49379;DHT22;35254;47.990;-1.608;2022-11-23T14:59:27;21.30;56.80
49379;DHT22;35254;47.990;-1.608;2022-11-23T15:01:59;21.30;56.30
49379;DHT22;35254;47.990;-1.608;2022-11-23T15:04:35;21.30;56.30
49379;DHT22;35254;47.990;-1.608;2022-11-23T15:07:15;21.20;56.30
49379;DHT22;35254;47.990;-1.608;2022-11-23T15:12:22;21.20;56.40
49379;DHT22;35254;47.990;-1.608;2022-11-23T15:14:48;21.20;55.90
49379;DHT22;35254;47.990;-1.608;2022-11-23T15:17:17;21.20;56.10
49379;DHT22;35254;47.990;-1.608;2022-11-23T15:19:49;21.20;56.50
49379;DHT22;35254;47.990;-1.608;2022-11-23T15:22:17;21.20;56.20
49379;DHT22;35254;47.990;-1.608;2022-11-23T15:24:44;21.20;56.10
49379;DHT22;35254;47.990;-1.608;2022-11-23T15:27:15;21.20;57.00
49379;DHT22;35254;47.990;-1.608;2022-11-23T15:29:56;21.20;56.80
49379;DHT22;35254;47.990;-1.608;2022-11-23T15:32:30;21.20;57.30
49379;DHT22;35254;47.990;-1.608;2022-11-23T15:34:58;21.20;57.20
49379;DHT22;35254;47.990;-1.608;2022-11-23T15:37:24;21.20;57.10
49379;DHT22;35254;47.990;-1.608;2022-11-23T15:39:52;21.20;56.70
49379;DHT22;35254;47.990;-1.608;2022-11-23T15:42:20;21.20;56.10
49379;DHT22;35254;47.990;-1.608;2022-11-23T15:44:46;21.20;57.10
49379;DHT22;35254;47.990;-1.608;2022-11-23T15:47:21;21.20;55.70
49379;DHT22;35254;47.990;-1.608;2022-11-23T15:49:48;21.20;55.60
49379;DHT22;35254;47.990;-1.608;2022-11-23T15:52:16;21.20;56.30
49379;DHT22;35254;47.990;-1.608;2022-11-23T15:54:42;21.20;56.30
49379;DHT22;35254;47.990;-1.608;2022-11-23T15:57:18;21.20;56.40
49379;DHT22;35254;47.990;-1.608;2022-11-23T16:00:03;21.20;56.10
49379;DHT22;35254;47.990;-1.608;2022-11-23T16:02:29;21.20;55.90
49379;DHT22;35254;47.990;-1.608;2022-11-23T16:05:08;21.20;55.20
49379;DHT22;35254;47.990;-1.608;2022-11-23T16:10:30;21.20;56.00
49379;DHT22;35254;47.990;-1.608;2022-11-23T16:12:58;21.20;56.40
49379;DHT22;35254;47.990;-1.608;2022-11-23T16:18:04;21.10;56.20
49379;DHT22;35254;47.990;-1.608;2022-11-23T16:20:31;21.10;56.10
49379;DHT22;35254;47.990;-1.608;2022-11-23T16:22:58;21.10;55.30
49379;DHT22;35254;47.990;-1.608;2022-11-23T16:25:34;21.10;56.30
49379;DHT22;35254;47.990;-1.608;2022-11-23T16:28:03;21.10;56.40
49379;DHT22;35254;47.990;-1.608;2022-11-23T16:30:40;21.10;55.80
49379;DHT22;35254;47.990;-1.608;2022-11-23T16:33:13;21.10;56.30
49379;DHT22;35254;47.990;-1.608;2022-11-23T16:35:39;21.10;56.20
49379;DHT22;35254;47.990;-1.608;2022-11-23T16:38:04;21.10;56.10
49379;DHT22;35254;47.990;-1.608;2022-11-23T16:40:31;21.10;55.70
49379;DHT22;35254;47.990;-1.608;2022-11-23T16:42:57;21.10;55.70
49379;DHT22;35254;47.990;-1.608;2022-11-23T16:45:22;21.10;55.50
49379;DHT22;35254;47.990;-1.608;2022-11-23T16:47:56;21.10;55.50
49379;DHT22;35254;47.990;-1.608;2022-11-23T16:50:30;21.00;55.10
49379;DHT22;35254;47.990;-1.608;2022-11-23T16:52:59;21.00;55.20
49379;DHT22;35254;47.990;-1.608;2022-11-23T16:55:25;21.00;55.30
49379;DHT22;35254;47.990;-1.608;2022-11-23T16:57:51;21.00;55.00
49379;DHT22;35254;47.990;-1.608;2022-11-23T17:00:19;21.00;55.00
49379;DHT22;35254;47.990;-1.608;2022-11-23T17:02:45;20.90;55.00
49379;DHT22;35254;47.990;-1.608;2022-11-23T17:05:19;20.90;54.80
49379;DHT22;35254;47.990;-1.608;2022-11-23T17:07:45;20.90;55.10
49379;DHT22;35254;47.990;-1.608;2022-11-23T17:10:12;20.90;55.20
49379;DHT22;35254;47.990;-1.608;2022-11-23T17:12:38;20.90;53.50
49379;DHT22;35254;47.990;-1.608;2022-11-23T17:15:06;20.70;53.20
49379;DHT22;35254;47.990;-1.608;2022-11-23T17:17:32;20.70;53.70
49379;DHT22;35254;47.990;-1.608;2022-11-23T17:19:58;20.70;54.40
49379;DHT22;35254;47.990;-1.608;2022-11-23T17:22:23;20.80;55.10
49379;DHT22;35254;47.990;-1.608;2022-11-23T17:24:49;20.80;55.10
49379;DHT22;35254;47.990;-1.608;2022-11-23T17:27:23;20.80;54.50
49379;DHT22;35254;47.990;-1.608;2022-11-23T17:29:58;20.70;54.90
49379;DHT22;35254;47.990;-1.608;2022-11-23T17:32:25;20.70;55.20
49379;DHT22;35254;47.990;-1.608;2022-11-23T17:34:50;20.80;55.50
49379;DHT22;35254;47.990;-1.608;2022-11-23T17:37:20;20.80;55.30
49379;DHT22;35254;47.990;-1.608;2022-11-23T17:39:47;20.80;55.50